sensor_id;sensor_type;location;lat;lon;timestamp;P1;durP1;ratioP1;P2;durP2;ratioP2
3547;SDS011;1788;49.400;11.092;2023-03-01T00:02:16;17.20;;;10.43;;
3547;SDS011;1788;49.400;11.092;2023-03-01T00:04:43;20.60;;;11.30;;
3547;SDS011;1788;49.400;11.092;2023-03-01T00:07:10;13.17;;;9.30;;
3547;SDS011;1788;49.400;11.092;2023-03-01T00:09:37;19.53;;;11.57;;
3547;SDS011;1788;49.400;11.092;2023-03-01T00:12:04;16.20;;;9.10;;
3547;SDS011;1788;49.400;11.092;2023-03-01T00:14:31;15.40;;;9.07;;
3547;SDS011;1788;49.400;11.092;2023-03-01T00:16:58;17.60;;;10.80;;
3547;SDS011;1788;49.400;11.092;2023-03-01T00:19:25;17.93;;;11.07;;
3547;SDS011;1788;49.400;11.092;2023-03-01T00:21:52;21.80;;;10.87;;
3547;SDS011;1788;49.400;11.092;2023-03-01T00:24:18;24.73;;;11.90;;
3547;SDS011;1788;49.400;11.092;2023-03-01T00:26:45;21.03;;;11.43;;
3547;SDS011;1788;49.400;11.092;2023-03-01T00:29:12;20.80;;;11.57;;
3547;SDS011;1788;49.400;11.092;2023-03-01T00:31:38;19.73;;;11.03;;
3547;SDS011;1788;49.400;11.092;2023-03-01T00:34:05;16.93;;;10.70;;
3547;SDS011;1788;49.400;11.092;2023-03-01T00:36:33;19.63;;;10.63;;
3547;SDS011;1788;49.400;11.092;2023-03-01T00:38:59;21.53;;;12.23;;
3547;SDS011;1788;49.400;11.092;2023-03-01T00:41:25;19.17;;;10.30;;
3547;SDS011;1788;49.400;11.092;2023-03-01T00:43:53;22.97;;;10.77;;
3547;SDS011;1788;49.400;11.092;2023-03-01T00:46:20;14.50;;;8.13;;
3547;SDS011;1788;49.400;11.092;2023-03-01T00:48:46;20.63;;;10.87;;
3547;SDS011;1788;49.400;11.092;2023-03-01T00:53:39;16.70;;;9.70;;
3547;SDS011;1788;49.400;11.092;2023-03-01T00:56:07;21.27;;;11.03;;
3547;SDS011;1788;49.400;11.092;2023-03-01T00:58:34;25.03;;;12.57;;
3547;SDS011;1788;49.400;11.092;2023-03-01T01:01:06;19.53;;;11.67;;
3547;SDS011;1788;49.400;11.092;2023-03-01T01:03:27;21.90;;;12.47;;
3547;SDS011;1788;49.400;11.092;2023-03-01T01:05:54;16.07;;;10.73;;
3547;SDS011;1788;49.400;11.092;2023-03-01T01:08:21;23.40;;;11.20;;
3547;SDS011;1788;49.400;11.092;2023-03-01T01:10:48;18.27;;;10.83;;
3547;SDS011;1788;49.400;11.092;2023-03-01T01:13:15;16.43;;;11.53;;
3547;SDS011;1788;49.400;11.092;2023-03-01T01:15:42;24.43;;;12.43;;
3547;SDS011;1788;49.400;11.092;2023-03-01T01:18:09;22.40;;;11.40;;
3547;SDS011;1788;49.400;11.092;2023-03-01T01:20:35;21.97;;;12.20;;
3547;SDS011;1788;49.400;11.092;2023-03-01T01:23:04;21.10;;;10.47;;
3547;SDS011;1788;49.400;11.092;2023-03-01T01:25:29;18.00;;;10.70;;
3547;SDS011;1788;49.400;11.092;2023-03-01T01:27:56;22.23;;;11.20;;
3547;SDS011;1788;49.400;11.092;2023-03-01T01:30:23;22.90;;;11.53;;
3547;SDS011;1788;49.400;11.092;2023-03-01T01:32:49;19.67;;;11.07;;
3547;SDS011;1788;49.400;11.092;2023-03-01T01:35:17;18.37;;;10.60;;
3547;SDS011;1788;49.400;11.092;2023-03-01T01:37:43;20.10;;;11.87;;
3547;SDS011;1788;49.400;11.092;2023-03-01T01:40:12;17.40;;;9.93;;
3547;SDS011;1788;49.400;11.092;2023-03-01T01:42:39;22.20;;;11.57;;
3547;SDS011;1788;49.400;11.092;2023-03-01T01:47:33;20.67;;;12.17;;
3547;SDS011;1788;49.400;11.092;2023-03-01T01:49:59;18.90;;;10.73;;
3547;SDS011;1788;49.400;11.092;2023-03-01T01:57:20;18.23;;;11.40;;
3547;SDS011;1788;49.400;11.092;2023-03-01T01:59:49;20.37;;;10.90;;
3547;SDS011;1788;49.400;11.092;2023-03-01T02:02:13;25.07;;;11.57;;
3547;SDS011;1788;49.400;11.092;2023-03-01T02:04:39;18.43;;;10.80;;
3547;SDS011;1788;49.400;11.092;2023-03-01T02:09:32;19.47;;;10.60;;
3547;SDS011;1788;49.400;11.092;2023-03-01T02:11:59;15.90;;;10.00;;
3547;SDS011;1788;49.400;11.092;2023-03-01T02:14:26;19.93;;;10.00;;
3547;SDS011;1788;49.400;11.092;2023-03-01T02:16:52;24.50;;;11.90;;
3547;SDS011;1788;49.400;11.092;2023-03-01T02:19:23;18.20;;;8.87;;
3547;SDS011;1788;49.400;11.092;2023-03-01T02:26:41;22.53;;;11.07;;
3547;SDS011;1788;49.400;11.092;2023-03-01T02:29:05;18.37;;;9.90;;
3547;SDS011;1788;49.400;11.092;2023-03-01T02:31:32;18.80;;;9.77;;
3547;SDS011;1788;49.400;11.092;2023-03-01T02:33:58;23.63;;;11.03;;
3547;SDS011;1788;49.400;11.092;2023-03-01T02:38:53;16.43;;;9.03;;
3547;SDS011;1788;49.400;11.092;2023-03-01T02:41:19;23.57;;;10.97;;
3547;SDS011;1788;49.400;11.092;2023-03-01T02:43:46;17.07;;;10.77;;
3547;SDS011;1788;49.400;11.092;2023-03-01T02:46:14;19.17;;;11.90;;
3547;SDS011;1788;49.400;11.092;2023-03-01T02:48:46;24.63;;;11.63;;
3547;SDS011;1788;49.400;11.092;2023-03-01T02:56:01;17.30;;;11.37;;
3547;SDS011;1788;49.400;11.092;2023-03-01T02:58:28;19.90;;;11.80;;
3547;SDS011;1788;49.400;11.092;2023-03-01T03:00:55;18.43;;;11.17;;
3547;SDS011;1788;49.400;11.092;2023-03-01T03:03:24;21.73;;;11.37;;
3547;SDS011;1788;49.400;11.092;2023-03-01T03:05:52;20.53;;;10.70;;
3547;SDS011;1788;49.400;11.092;2023-03-01T03:08:18;22.50;;;11.90;;
3547;SDS011;1788;49.400;11.092;2023-03-01T03:10:46;20.63;;;10.43;;
3547;SDS011;1788;49.400;11.092;2023-03-01T03:13:13;25.50;;;12.00;;
3547;SDS011;1788;49.400;11.092;2023-03-01T03:15:40;19.87;;;10.93;;
3547;SDS011;1788;49.400;11.092;2023-03-01T03:18:07;22.57;;;12.43;;
3547;SDS011;1788;49.400;11.092;2023-03-01T03:20:32;20.63;;;11.80;;
3547;SDS011;1788;49.400;11.092;2023-03-01T03:22:59;22.23;;;11.37;;
3547;SDS011;1788;49.400;11.092;2023-03-01T03:25:27;20.73;;;11.57;;
3547;SDS011;1788;49.400;11.092;2023-03-01T03:27:53;20.00;;;11.33;;
3547;SDS011;1788;49.400;11.092;2023-03-01T03:30:20;21.87;;;11.37;;
3547;SDS011;1788;49.400;11.092;2023-03-01T03:32:47;23.63;;;11.73;;
3547;SDS011;1788;49.400;11.092;2023-03-01T03:35:14;23.83;;;12.07;;
3547;SDS011;1788;49.400;11.092;2023-03-01T03:37:41;27.80;;;12.50;;
3547;SDS011;1788;49.400;11.092;2023-03-01T03:42:35;21.17;;;11.07;;
3547;SDS011;1788;49.400;11.092;2023-03-01T03:45:01;20.23;;;11.47;;
3547;SDS011;1788;49.400;11.092;2023-03-01T03:47:28;21.87;;;11.30;;
3547;SDS011;1788;49.400;11.092;2023-03-01T03:49:54;25.03;;;12.80;;
3547;SDS011;1788;49.400;11.092;2023-03-01T03:52:22;35.00;;;15.07;;
3547;SDS011;1788;49.400;11.092;2023-03-01T03:54:48;22.73;;;11.57;;
3547;SDS011;1788;49.400;11.092;2023-03-01T03:57:16;25.77;;;12.50;;
3547;SDS011;1788;49.400;11.092;2023-03-01T03:59:42;27.17;;;13.67;;
3547;SDS011;1788;49.400;11.092;2023-03-01T04:02:09;22.30;;;12.37;;
3547;SDS011;1788;49.400;11.092;2023-03-01T04:04:36;25.37;;;13.13;;
3547;SDS011;1788;49.400;11.092;2023-03-01T04:07:02;38.20;;;18.57;;
3547;SDS011;1788;49.400;11.092;2023-03-01T04:09:30;23.50;;;12.00;;
3547;SDS011;1788;49.400;11.092;2023-03-01T04:11:56;26.27;;;13.30;;
3547;SDS011;1788;49.400;11.092;2023-03-01T04:14:24;27.30;;;12.60;;
3547;SDS011;1788;49.400;11.092;2023-03-01T04:16:50;33.77;;;15.87;;
3547;SDS011;1788;49.400;11.092;2023-03-01T04:19:18;32.57;;;14.20;;
3547;SDS011;1788;49.400;11.092;2023-03-01T04:21:44;25.63;;;12.57;;
3547;SDS011;1788;49.400;11.092;2023-03-01T04:24:11;28.13;;;13.90;;
3547;SDS011;1788;49.400;11.092;2023-03-01T04:26:38;21.50;;;12.63;;
3547;SDS011;1788;49.400;11.092;2023-03-01T04:29:05;18.63;;;11.50;;
3547;SDS011;1788;49.400;11.092;2023-03-01T04:31:31;24.10;;;12.30;;
3547;SDS011;1788;49.400;11.092;2023-03-01T04:33:58;31.50;;;14.03;;
3547;SDS011;1788;49.400;11.092;2023-03-01T04:36:26;20.67;;;11.50;;
3547;SDS011;1788;49.400;11.092;2023-03-01T04:38:52;21.03;;;11.17;;
3547;SDS011;1788;49.400;11.092;2023-03-01T04:41:20;23.10;;;11.70;;
3547;SDS011;1788;49.400;11.092;2023-03-01T04:43:46;28.17;;;13.07;;
3547;SDS011;1788;49.400;11.092;2023-03-01T04:46:14;26.37;;;12.17;;
3547;SDS011;1788;49.400;11.092;2023-03-01T04:48:40;22.07;;;11.80;;
3547;SDS011;1788;49.400;11.092;2023-03-01T04:51:06;21.07;;;11.73;;
3547;SDS011;1788;49.400;11.092;2023-03-01T04:53:33;30.97;;;13.93;;
3547;SDS011;1788;49.400;11.092;2023-03-01T04:55:59;19.60;;;9.90;;
3547;SDS011;1788;49.400;11.092;2023-03-01T04:58:27;20.87;;;12.27;;
3547;SDS011;1788;49.400;11.092;2023-03-01T05:00:54;25.50;;;12.20;;
3547;SDS011;1788;49.400;11.092;2023-03-01T05:03:21;23.73;;;12.37;;
3547;SDS011;1788;49.400;11.092;2023-03-01T05:05:48;22.77;;;12.47;;
3547;SDS011;1788;49.400;11.092;2023-03-01T05:08:15;23.87;;;12.63;;
3547;SDS011;1788;49.400;11.092;2023-03-01T05:10:44;21.57;;;11.80;;
3547;SDS011;1788;49.400;11.092;2023-03-01T05:13:09;20.60;;;12.20;;
3547;SDS011;1788;49.400;11.092;2023-03-01T05:15:37;13.17;;;7.97;;
3547;SDS011;1788;49.400;11.092;2023-03-01T05:20:31;23.20;;;12.63;;
3547;SDS011;1788;49.400;11.092;2023-03-01T05:22:59;22.17;;;11.63;;
3547;SDS011;1788;49.400;11.092;2023-03-01T05:25:24;23.67;;;12.27;;
3547;SDS011;1788;49.400;11.092;2023-03-01T05:27:52;23.80;;;12.50;;
3547;SDS011;1788;49.400;11.092;2023-03-01T05:30:18;18.17;;;9.07;;
3547;SDS011;1788;49.400;11.092;2023-03-01T05:32:46;25.83;;;12.00;;
3547;SDS011;1788;49.400;11.092;2023-03-01T05:35:12;22.83;;;12.23;;
3547;SDS011;1788;49.400;11.092;2023-03-01T05:37:40;21.87;;;12.03;;
3547;SDS011;1788;49.400;11.092;2023-03-01T05:40:06;24.30;;;12.83;;
3547;SDS011;1788;49.400;11.092;2023-03-01T05:42:33;20.63;;;11.23;;
3547;SDS011;1788;49.400;11.092;2023-03-01T05:45:01;18.13;;;10.47;;
3547;SDS011;1788;49.400;11.092;2023-03-01T05:47:29;19.27;;;10.70;;
3547;SDS011;1788;49.400;11.092;2023-03-01T05:49:57;30.13;;;14.67;;
3547;SDS011;1788;49.400;11.092;2023-03-01T05:52:23;20.30;;;11.60;;
3547;SDS011;1788;49.400;11.092;2023-03-01T05:54:50;17.93;;;11.33;;
3547;SDS011;1788;49.400;11.092;2023-03-01T05:57:16;21.13;;;12.37;;
3547;SDS011;1788;49.400;11.092;2023-03-01T05:59:43;17.70;;;9.33;;
3547;SDS011;1788;49.400;11.092;2023-03-01T06:02:10;27.33;;;12.97;;
3547;SDS011;1788;49.400;11.092;2023-03-01T06:04:37;18.40;;;12.33;;
3547;SDS011;1788;49.400;11.092;2023-03-01T06:07:03;27.27;;;12.13;;
3547;SDS011;1788;49.400;11.092;2023-03-01T06:09:30;22.77;;;13.13;;
3547;SDS011;1788;49.400;11.092;2023-03-01T06:11:57;20.73;;;11.80;;
3547;SDS011;1788;49.400;11.092;2023-03-01T06:14:23;16.87;;;11.10;;
3547;SDS011;1788;49.400;11.092;2023-03-01T06:16:50;25.77;;;13.30;;
3547;SDS011;1788;49.400;11.092;2023-03-01T06:19:16;18.87;;;11.17;;
3547;SDS011;1788;49.400;11.092;2023-03-01T06:21:43;25.63;;;12.80;;
3547;SDS011;1788;49.400;11.092;2023-03-01T06:24:11;24.43;;;13.50;;
3547;SDS011;1788;49.400;11.092;2023-03-01T06:26:37;30.97;;;14.97;;
3547;SDS011;1788;49.400;11.092;2023-03-01T06:29:04;27.37;;;13.93;;
3547;SDS011;1788;49.400;11.092;2023-03-01T06:31:30;21.33;;;12.57;;
3547;SDS011;1788;49.400;11.092;2023-03-01T06:33:58;31.97;;;14.10;;
3547;SDS011;1788;49.400;11.092;2023-03-01T06:36:24;26.30;;;12.70;;
3547;SDS011;1788;49.400;11.092;2023-03-01T06:38:52;23.43;;;12.60;;
3547;SDS011;1788;49.400;11.092;2023-03-01T06:41:18;16.77;;;9.47;;
3547;SDS011;1788;49.400;11.092;2023-03-01T06:43:46;20.37;;;12.40;;
3547;SDS011;1788;49.400;11.092;2023-03-01T06:46:13;27.60;;;13.47;;
3547;SDS011;1788;49.400;11.092;2023-03-01T06:48:40;26.80;;;13.47;;
3547;SDS011;1788;49.400;11.092;2023-03-01T06:51:08;22.17;;;12.70;;
3547;SDS011;1788;49.400;11.092;2023-03-01T06:53:34;22.00;;;13.03;;
3547;SDS011;1788;49.400;11.092;2023-03-01T06:56:01;24.10;;;13.13;;
3547;SDS011;1788;49.400;11.092;2023-03-01T06:58:28;24.43;;;13.47;;
3547;SDS011;1788;49.400;11.092;2023-03-01T07:00:54;22.37;;;13.03;;
3547;SDS011;1788;49.400;11.092;2023-03-01T07:03:21;20.20;;;12.07;;
3547;SDS011;1788;49.400;11.092;2023-03-01T07:05:48;22.03;;;13.10;;
3547;SDS011;1788;49.400;11.092;2023-03-01T07:08:14;28.57;;;14.23;;
3547;SDS011;1788;49.400;11.092;2023-03-01T07:10:41;25.57;;;13.40;;
3547;SDS011;1788;49.400;11.092;2023-03-01T07:13:08;23.73;;;13.13;;
3547;SDS011;1788;49.400;11.092;2023-03-01T07:15:35;25.10;;;12.63;;
3547;SDS011;1788;49.400;11.092;2023-03-01T07:18:02;28.80;;;14.80;;
3547;SDS011;1788;49.400;11.092;2023-03-01T07:20:29;28.20;;;15.33;;
3547;SDS011;1788;49.400;11.092;2023-03-01T07:22:55;24.53;;;14.60;;
3547;SDS011;1788;49.400;11.092;2023-03-01T07:25:22;27.90;;;13.43;;
3547;SDS011;1788;49.400;11.092;2023-03-01T07:27:50;29.97;;;14.10;;
3547;SDS011;1788;49.400;11.092;2023-03-01T07:30:16;27.57;;;14.10;;
3547;SDS011;1788;49.400;11.092;2023-03-01T07:32:43;26.63;;;12.07;;
3547;SDS011;1788;49.400;11.092;2023-03-01T07:35:10;23.83;;;14.47;;
3547;SDS011;1788;49.400;11.092;2023-03-01T07:37:37;26.03;;;14.23;;
3547;SDS011;1788;49.400;11.092;2023-03-01T07:40:04;25.50;;;14.00;;
3547;SDS011;1788;49.400;11.092;2023-03-01T07:42:31;23.43;;;13.70;;
3547;SDS011;1788;49.400;11.092;2023-03-01T07:44:58;27.63;;;14.57;;
3547;SDS011;1788;49.400;11.092;2023-03-01T07:47:24;24.27;;;13.80;;
3547;SDS011;1788;49.400;11.092;2023-03-01T07:49:51;27.00;;;14.63;;
3547;SDS011;1788;49.400;11.092;2023-03-01T07:52:17;27.17;;;13.93;;
3547;SDS011;1788;49.400;11.092;2023-03-01T07:54:44;26.97;;;15.30;;
3547;SDS011;1788;49.400;11.092;2023-03-01T07:57:11;26.73;;;13.50;;
3547;SDS011;1788;49.400;11.092;2023-03-01T07:59:37;26.17;;;13.40;;
3547;SDS011;1788;49.400;11.092;2023-03-01T08:02:04;21.30;;;12.90;;
3547;SDS011;1788;49.400;11.092;2023-03-01T08:04:31;24.97;;;13.33;;
3547;SDS011;1788;49.400;11.092;2023-03-01T08:06:57;25.47;;;13.83;;
3547;SDS011;1788;49.400;11.092;2023-03-01T08:09:24;27.03;;;14.83;;
3547;SDS011;1788;49.400;11.092;2023-03-01T08:11:50;21.83;;;13.83;;
3547;SDS011;1788;49.400;11.092;2023-03-01T08:14:18;27.50;;;14.10;;
3547;SDS011;1788;49.400;11.092;2023-03-01T08:16:44;27.03;;;13.87;;
3547;SDS011;1788;49.400;11.092;2023-03-01T08:19:11;26.63;;;13.70;;
3547;SDS011;1788;49.400;11.092;2023-03-01T08:21:38;34.47;;;16.90;;
3547;SDS011;1788;49.400;11.092;2023-03-01T08:24:04;27.10;;;14.63;;
3547;SDS011;1788;49.400;11.092;2023-03-01T08:26:32;36.33;;;18.40;;
3547;SDS011;1788;49.400;11.092;2023-03-01T08:28:59;28.30;;;13.93;;
3547;SDS011;1788;49.400;11.092;2023-03-01T08:31:26;25.80;;;13.90;;
3547;SDS011;1788;49.400;11.092;2023-03-01T08:33:54;24.80;;;14.03;;
3547;SDS011;1788;49.400;11.092;2023-03-01T08:36:21;28.63;;;14.10;;
3547;SDS011;1788;49.400;11.092;2023-03-01T08:38:47;29.17;;;15.00;;
3547;SDS011;1788;49.400;11.092;2023-03-01T08:41:13;27.93;;;14.73;;
3547;SDS011;1788;49.400;11.092;2023-03-01T08:43:41;25.30;;;14.23;;
3547;SDS011;1788;49.400;11.092;2023-03-01T08:46:07;21.63;;;13.07;;
3547;SDS011;1788;49.400;11.092;2023-03-01T08:48:34;23.73;;;14.03;;
3547;SDS011;1788;49.400;11.092;2023-03-01T08:53:27;26.17;;;14.50;;
3547;SDS011;1788;49.400;11.092;2023-03-01T08:55:54;25.20;;;13.43;;
3547;SDS011;1788;49.400;11.092;2023-03-01T08:58:20;25.60;;;14.00;;
3547;SDS011;1788;49.400;11.092;2023-03-01T09:00:47;22.43;;;13.53;;
3547;SDS011;1788;49.400;11.092;2023-03-01T09:03:13;25.00;;;15.17;;
3547;SDS011;1788;49.400;11.092;2023-03-01T09:05:41;27.83;;;14.57;;
3547;SDS011;1788;49.400;11.092;2023-03-01T09:08:07;25.37;;;13.13;;
3547;SDS011;1788;49.400;11.092;2023-03-01T09:10:37;27.60;;;16.67;;
3547;SDS011;1788;49.400;11.092;2023-03-01T09:13:01;22.97;;;14.33;;
3547;SDS011;1788;49.400;11.092;2023-03-01T09:15:28;26.63;;;14.93;;
3547;SDS011;1788;49.400;11.092;2023-03-01T09:17:55;28.43;;;14.47;;
3547;SDS011;1788;49.400;11.092;2023-03-01T09:20:21;23.37;;;14.47;;
3547;SDS011;1788;49.400;11.092;2023-03-01T09:22:48;25.73;;;14.53;;
3547;SDS011;1788;49.400;11.092;2023-03-01T09:25:14;22.13;;;14.23;;
3547;SDS011;1788;49.400;11.092;2023-03-01T09:27:41;30.70;;;15.07;;
3547;SDS011;1788;49.400;11.092;2023-03-01T09:30:08;26.77;;;14.80;;
3547;SDS011;1788;49.400;11.092;2023-03-01T09:32:35;26.63;;;14.60;;
3547;SDS011;1788;49.400;11.092;2023-03-01T09:35:02;25.43;;;13.83;;
3547;SDS011;1788;49.400;11.092;2023-03-01T09:37:29;27.73;;;14.80;;
3547;SDS011;1788;49.400;11.092;2023-03-01T09:39:56;29.13;;;14.80;;
3547;SDS011;1788;49.400;11.092;2023-03-01T09:42:22;25.73;;;15.00;;
3547;SDS011;1788;49.400;11.092;2023-03-01T09:49:42;26.57;;;13.93;;
3547;SDS011;1788;49.400;11.092;2023-03-01T09:54:35;23.63;;;13.97;;
3547;SDS011;1788;49.400;11.092;2023-03-01T10:06:52;25.30;;;14.13;;
3547;SDS011;1788;49.400;11.092;2023-03-01T10:09:15;23.77;;;13.47;;
3547;SDS011;1788;49.400;11.092;2023-03-01T10:11:43;26.80;;;14.07;;
3547;SDS011;1788;49.400;11.092;2023-03-01T10:16:38;21.93;;;13.97;;
3547;SDS011;1788;49.400;11.092;2023-03-01T10:19:04;24.43;;;12.90;;
3547;SDS011;1788;49.400;11.092;2023-03-01T10:21:31;23.83;;;14.17;;
3547;SDS011;1788;49.400;11.092;2023-03-01T10:24:01;25.97;;;12.43;;
3547;SDS011;1788;49.400;11.092;2023-03-01T10:26:29;20.00;;;12.57;;
3547;SDS011;1788;49.400;11.092;2023-03-01T10:31:19;20.60;;;12.90;;
3547;SDS011;1788;49.400;11.092;2023-03-01T10:33:44;18.27;;;11.67;;
3547;SDS011;1788;49.400;11.092;2023-03-01T10:36:11;23.97;;;13.00;;
3547;SDS011;1788;49.400;11.092;2023-03-01T10:41:05;22.60;;;12.70;;
3547;SDS011;1788;49.400;11.092;2023-03-01T10:45:57;17.67;;;12.30;;
3547;SDS011;1788;49.400;11.092;2023-03-01T10:48:25;19.67;;;13.10;;
3547;SDS011;1788;49.400;11.092;2023-03-01T10:55:45;23.17;;;13.07;;
3547;SDS011;1788;49.400;11.092;2023-03-01T11:05:33;29.83;;;15.17;;
3547;SDS011;1788;49.400;11.092;2023-03-01T11:08:01;22.87;;;13.07;;
3547;SDS011;1788;49.400;11.092;2023-03-01T11:17:49;23.73;;;14.13;;
3547;SDS011;1788;49.400;11.092;2023-03-01T11:25:11;23.23;;;13.23;;
3547;SDS011;1788;49.400;11.092;2023-03-01T11:27:38;20.33;;;12.00;;
3547;SDS011;1788;49.400;11.092;2023-03-01T11:34:59;22.63;;;12.53;;
3547;SDS011;1788;49.400;11.092;2023-03-01T11:42:19;28.87;;;13.80;;
3547;SDS011;1788;49.400;11.092;2023-03-01T11:44:46;17.63;;;10.10;;
3547;SDS011;1788;49.400;11.092;2023-03-01T11:57:01;20.37;;;13.03;;
3547;SDS011;1788;49.400;11.092;2023-03-01T12:01:57;19.37;;;13.40;;
3547;SDS011;1788;49.400;11.092;2023-03-01T12:11:43;19.97;;;12.60;;
3547;SDS011;1788;49.400;11.092;2023-03-01T12:19:01;22.13;;;12.20;;
3547;SDS011;1788;49.400;11.092;2023-03-01T12:36:12;20.20;;;12.97;;
3547;SDS011;1788;49.400;11.092;2023-03-01T12:50:52;14.60;;;9.37;;
3547;SDS011;1788;49.400;11.092;2023-03-01T12:55:45;15.70;;;10.63;;
3547;SDS011;1788;49.400;11.092;2023-03-01T13:05:36;23.73;;;11.87;;
3547;SDS011;1788;49.400;11.092;2023-03-01T13:08:05;14.87;;;9.37;;
3547;SDS011;1788;49.400;11.092;2023-03-01T13:20:16;17.90;;;11.23;;
3547;SDS011;1788;49.400;11.092;2023-03-01T13:22:42;18.03;;;11.83;;
3547;SDS011;1788;49.400;11.092;2023-03-01T13:27:35;17.60;;;10.70;;
3547;SDS011;1788;49.400;11.092;2023-03-01T13:30:01;17.37;;;11.73;;
3547;SDS011;1788;49.400;11.092;2023-03-01T13:34:56;18.33;;;10.70;;
3547;SDS011;1788;49.400;11.092;2023-03-01T13:37:24;18.30;;;11.27;;
3547;SDS011;1788;49.400;11.092;2023-03-01T13:39:49;17.37;;;10.60;;
3547;SDS011;1788;49.400;11.092;2023-03-01T13:44:43;18.40;;;11.37;;
3547;SDS011;1788;49.400;11.092;2023-03-01T13:47:14;18.40;;;11.90;;
3547;SDS011;1788;49.400;11.092;2023-03-01T13:52:05;21.57;;;12.50;;
3547;SDS011;1788;49.400;11.092;2023-03-01T13:54:32;18.13;;;11.60;;
3547;SDS011;1788;49.400;11.092;2023-03-01T13:56:59;18.73;;;13.00;;
3547;SDS011;1788;49.400;11.092;2023-03-01T13:59:25;19.40;;;11.97;;
3547;SDS011;1788;49.400;11.092;2023-03-01T14:01:53;19.90;;;11.60;;
3547;SDS011;1788;49.400;11.092;2023-03-01T14:04:22;19.73;;;10.87;;
3547;SDS011;1788;49.400;11.092;2023-03-01T14:06:47;15.10;;;10.70;;
3547;SDS011;1788;49.400;11.092;2023-03-01T14:21:29;15.43;;;10.83;;
3547;SDS011;1788;49.400;11.092;2023-03-01T14:23:55;20.73;;;11.27;;
3547;SDS011;1788;49.400;11.092;2023-03-01T14:26:23;16.77;;;11.37;;
3547;SDS011;1788;49.400;11.092;2023-03-01T14:28:49;18.60;;;11.53;;
3547;SDS011;1788;49.400;11.092;2023-03-01T14:33:43;19.63;;;10.50;;
3547;SDS011;1788;49.400;11.092;2023-03-01T14:36:10;17.40;;;11.83;;
3547;SDS011;1788;49.400;11.092;2023-03-01T14:43:30;18.63;;;12.97;;
3547;SDS011;1788;49.400;11.092;2023-03-01T14:45:56;24.23;;;14.50;;
3547;SDS011;1788;49.400;11.092;2023-03-01T14:48:24;16.63;;;12.47;;
3547;SDS011;1788;49.400;11.092;2023-03-01T14:50:50;15.80;;;11.97;;
3547;SDS011;1788;49.400;11.092;2023-03-01T14:53:20;19.07;;;13.13;;
3547;SDS011;1788;49.400;11.092;2023-03-01T14:55:46;25.17;;;15.20;;
3547;SDS011;1788;49.400;11.092;2023-03-01T14:58:13;23.63;;;14.77;;
3547;SDS011;1788;49.400;11.092;2023-03-01T15:00:45;13.20;;;11.43;;
3547;SDS011;1788;49.400;11.092;2023-03-01T15:03:07;20.20;;;12.10;;
3547;SDS011;1788;49.400;11.092;2023-03-01T15:05:34;20.63;;;13.63;;
3547;SDS011;1788;49.400;11.092;2023-03-01T15:08:01;18.73;;;11.37;;
3547;SDS011;1788;49.400;11.092;2023-03-01T15:10:28;17.70;;;11.33;;
3547;SDS011;1788;49.400;11.092;2023-03-01T15:12:54;32.73;;;18.53;;
3547;SDS011;1788;49.400;11.092;2023-03-01T15:17:50;22.13;;;13.47;;
3547;SDS011;1788;49.400;11.092;2023-03-01T15:20:15;33.13;;;18.63;;
3547;SDS011;1788;49.400;11.092;2023-03-01T15:22:40;22.53;;;13.23;;
3547;SDS011;1788;49.400;11.092;2023-03-01T15:25:13;20.53;;;12.57;;
3547;SDS011;1788;49.400;11.092;2023-03-01T15:27:33;17.47;;;11.63;;
3547;SDS011;1788;49.400;11.092;2023-03-01T15:30:00;24.77;;;15.00;;
3547;SDS011;1788;49.400;11.092;2023-03-01T15:32:29;26.50;;;14.77;;
3547;SDS011;1788;49.400;11.092;2023-03-01T15:34:53;20.43;;;11.97;;
3547;SDS011;1788;49.400;11.092;2023-03-01T15:44:41;26.60;;;15.07;;
3547;SDS011;1788;49.400;11.092;2023-03-01T15:47:21;20.63;;;12.60;;
3547;SDS011;1788;49.400;11.092;2023-03-01T15:49:36;30.13;;;16.30;;
3547;SDS011;1788;49.400;11.092;2023-03-01T15:52:02;19.73;;;11.83;;
3547;SDS011;1788;49.400;11.092;2023-03-01T15:54:28;37.97;;;19.27;;
3547;SDS011;1788;49.400;11.092;2023-03-01T15:56:56;31.23;;;15.77;;
3547;SDS011;1788;49.400;11.092;2023-03-01T15:59:22;26.10;;;14.60;;
3547;SDS011;1788;49.400;11.092;2023-03-01T16:01:50;30.50;;;17.07;;
3547;SDS011;1788;49.400;11.092;2023-03-01T16:04:17;20.47;;;12.30;;
3547;SDS011;1788;49.400;11.092;2023-03-01T16:06:44;46.67;;;28.83;;
3547;SDS011;1788;49.400;11.092;2023-03-01T16:09:10;35.07;;;19.57;;
3547;SDS011;1788;49.400;11.092;2023-03-01T16:11:38;29.80;;;16.33;;
3547;SDS011;1788;49.400;11.092;2023-03-01T16:14:04;20.23;;;11.70;;
3547;SDS011;1788;49.400;11.092;2023-03-01T16:16:32;38.63;;;22.27;;
3547;SDS011;1788;49.400;11.092;2023-03-01T16:18:58;37.80;;;18.33;;
3547;SDS011;1788;49.400;11.092;2023-03-01T16:21:26;25.53;;;16.33;;
3547;SDS011;1788;49.400;11.092;2023-03-01T16:23:52;37.50;;;19.43;;
3547;SDS011;1788;49.400;11.092;2023-03-01T16:26:19;33.67;;;16.93;;
3547;SDS011;1788;49.400;11.092;2023-03-01T16:28:46;26.13;;;16.37;;
3547;SDS011;1788;49.400;11.092;2023-03-01T16:31:15;36.17;;;18.37;;
3547;SDS011;1788;49.400;11.092;2023-03-01T16:33:39;35.40;;;19.80;;
3547;SDS011;1788;49.400;11.092;2023-03-01T16:36:07;40.90;;;19.87;;
3547;SDS011;1788;49.400;11.092;2023-03-01T16:38:33;28.53;;;15.03;;
3547;SDS011;1788;49.400;11.092;2023-03-01T16:41:00;29.50;;;16.70;;
3547;SDS011;1788;49.400;11.092;2023-03-01T16:43:27;32.47;;;17.60;;
3547;SDS011;1788;49.400;11.092;2023-03-01T16:45:54;29.07;;;16.73;;
3547;SDS011;1788;49.400;11.092;2023-03-01T16:48:21;33.43;;;17.70;;
3547;SDS011;1788;49.400;11.092;2023-03-01T16:53:15;28.97;;;14.00;;
3547;SDS011;1788;49.400;11.092;2023-03-01T16:55:42;31.97;;;17.20;;
3547;SDS011;1788;49.400;11.092;2023-03-01T16:58:08;46.50;;;24.73;;
3547;SDS011;1788;49.400;11.092;2023-03-01T17:00:35;56.83;;;28.27;;
3547;SDS011;1788;49.400;11.092;2023-03-01T17:03:01;34.37;;;17.23;;
3547;SDS011;1788;49.400;11.092;2023-03-01T17:05:29;29.20;;;16.53;;
3547;SDS011;1788;49.400;11.092;2023-03-01T17:07:55;49.80;;;25.70;;
3547;SDS011;1788;49.400;11.092;2023-03-01T17:10:22;52.00;;;26.53;;
3547;SDS011;1788;49.400;11.092;2023-03-01T17:12:49;39.67;;;21.00;;
3547;SDS011;1788;49.400;11.092;2023-03-01T17:15:15;38.83;;;20.13;;
3547;SDS011;1788;49.400;11.092;2023-03-01T17:17:43;43.43;;;21.03;;
3547;SDS011;1788;49.400;11.092;2023-03-01T17:20:09;31.47;;;17.23;;
3547;SDS011;1788;49.400;11.092;2023-03-01T17:22:36;41.43;;;20.77;;
3547;SDS011;1788;49.400;11.092;2023-03-01T17:25:03;34.63;;;19.50;;
3547;SDS011;1788;49.400;11.092;2023-03-01T17:27:30;42.87;;;21.33;;
3547;SDS011;1788;49.400;11.092;2023-03-01T17:29:57;33.83;;;19.13;;
3547;SDS011;1788;49.400;11.092;2023-03-01T17:32:24;29.77;;;17.47;;
3547;SDS011;1788;49.400;11.092;2023-03-01T17:34:50;32.77;;;17.63;;
3547;SDS011;1788;49.400;11.092;2023-03-01T17:37:18;28.00;;;15.23;;
3547;SDS011;1788;49.400;11.092;2023-03-01T17:39:44;30.13;;;16.37;;
3547;SDS011;1788;49.400;11.092;2023-03-01T17:42:11;27.60;;;15.80;;
3547;SDS011;1788;49.400;11.092;2023-03-01T17:44:38;34.07;;;17.93;;
3547;SDS011;1788;49.400;11.092;2023-03-01T17:47:06;40.17;;;22.20;;
3547;SDS011;1788;49.400;11.092;2023-03-01T17:49:33;32.73;;;17.77;;
3547;SDS011;1788;49.400;11.092;2023-03-01T17:51:59;29.27;;;14.80;;
3547;SDS011;1788;49.400;11.092;2023-03-01T17:54:26;29.57;;;16.67;;
3547;SDS011;1788;49.400;11.092;2023-03-01T17:56:53;54.67;;;29.20;;
3547;SDS011;1788;49.400;11.092;2023-03-01T17:59:19;30.33;;;19.57;;